Tavistock, New Jersey
Current Conditions -  °F | °C
As of 8:10 AM on Saturday 01 Nov 2014 (Local Time) from KPHL Reporting Station
Light Rain Light Rain  
Wind Chill: 37°   Ceiling: 4500
Heat Index: 45°   Visibility: 6mi
Dew Point: 41°   Wind: 21mph
Humidity: 86%   Direction: 20°NNE
Pressure: 29.8"   Gusts: 33mph
Location:  39.8934°N, 75.0387°W
Report Text: KPHL 011210Z 02018G29KT 6SM -RA BR SCT015 OVC045 07/05 A2980 RMK AO2 PK WND 04029/1203 P0001 T00720050 $
Loading
Personal Weather Stations






























Interactive Weather Map
Tropical Storm Tracking
New forecast layout! Learn more

10-Day Weather Forecast

Advertisements
Track Severe Weather on mobile